sensor_id;sensor_type;location;lat;lon;timestamp;P1;durP1;ratioP1;P2;durP2;ratioP2
4200;SDS011;2114;50.398;8.814;2022-11-15T00:04:35;3.27;;;2.30;;
4200;SDS011;2114;50.398;8.814;2022-11-15T00:09:35;1.93;;;1.77;;
4200;SDS011;2114;50.398;8.814;2022-11-15T00:14:36;2.70;;;1.40;;
4200;SDS011;2114;50.398;8.814;2022-11-15T00:19:36;1.47;;;1.37;;
4200;SDS011;2114;50.398;8.814;2022-11-15T00:24:37;1.10;;;1.10;;
4200;SDS011;2114;50.398;8.814;2022-11-15T00:29:38;1.37;;;1.27;;
4200;SDS011;2114;50.398;8.814;2022-11-15T00:34:43;0.90;;;0.90;;
4200;SDS011;2114;50.398;8.814;2022-11-15T00:39:43;2.07;;;1.80;;
4200;SDS011;2114;50.398;8.814;2022-11-15T00:44:44;1.60;;;1.50;;
4200;SDS011;2114;50.398;8.814;2022-11-15T00:49:44;0.80;;;0.80;;
4200;SDS011;2114;50.398;8.814;2022-11-15T00:54:45;0.80;;;0.70;;
4200;SDS011;2114;50.398;8.814;2022-11-15T00:59:45;1.40;;;1.07;;
4200;SDS011;2114;50.398;8.814;2022-11-15T01:04:46;1.00;;;1.00;;
4200;SDS011;2114;50.398;8.814;2022-11-15T01:09:47;2.07;;;1.87;;
4200;SDS011;2114;50.398;8.814;2022-11-15T01:14:47;1.00;;;1.00;;
4200;SDS011;2114;50.398;8.814;2022-11-15T01:19:49;0.87;;;0.77;;
4200;SDS011;2114;50.398;8.814;2022-11-15T01:24:50;1.23;;;1.23;;
4200;SDS011;2114;50.398;8.814;2022-11-15T01:29:50;4.20;;;2.23;;
4200;SDS011;2114;50.398;8.814;2022-11-15T01:34:51;3.70;;;2.80;;
4200;SDS011;2114;50.398;8.814;2022-11-15T01:39:51;3.70;;;2.07;;
4200;SDS011;2114;50.398;8.814;2022-11-15T01:44:52;2.40;;;1.87;;
4200;SDS011;2114;50.398;8.814;2022-11-15T01:49:59;1.80;;;1.53;;
4200;SDS011;2114;50.398;8.814;2022-11-15T01:55:08;1.00;;;1.00;;
4200;SDS011;2114;50.398;8.814;2022-11-15T02:00:11;1.37;;;1.33;;
4200;SDS011;2114;50.398;8.814;2022-11-15T02:05:14;1.20;;;1.20;;
4200;SDS011;2114;50.398;8.814;2022-11-15T02:10:19;1.67;;;1.57;;
4200;SDS011;2114;50.398;8.814;2022-11-15T02:15:23;1.27;;;1.17;;
4200;SDS011;2114;50.398;8.814;2022-11-15T02:20:40;2.30;;;2.10;;
4200;SDS011;2114;50.398;8.814;2022-11-15T02:36:38;1.77;;;1.50;;
4200;SDS011;2114;50.398;8.814;2022-11-15T02:47:00;1.07;;;1.07;;
4200;SDS011;2114;50.398;8.814;2022-11-15T02:52:17;2.17;;;1.97;;
4200;SDS011;2114;50.398;8.814;2022-11-15T02:57:19;0.80;;;0.80;;
4200;SDS011;2114;50.398;8.814;2022-11-15T03:08:22;1.40;;;1.23;;
4200;SDS011;2114;50.398;8.814;2022-11-15T03:19:00;2.20;;;1.27;;
4200;SDS011;2114;50.398;8.814;2022-11-15T03:24:07;1.10;;;1.10;;
4200;SDS011;2114;50.398;8.814;2022-11-15T03:29:13;0.90;;;0.90;;
4200;SDS011;2114;50.398;8.814;2022-11-15T03:34:22;0.90;;;0.90;;
4200;SDS011;2114;50.398;8.814;2022-11-15T03:39:27;1.53;;;1.20;;
4200;SDS011;2114;50.398;8.814;2022-11-15T03:44:51;1.00;;;1.00;;
4200;SDS011;2114;50.398;8.814;2022-11-15T03:49:52;1.03;;;1.00;;
4200;SDS011;2114;50.398;8.814;2022-11-15T03:55:03;6.23;;;1.60;;
4200;SDS011;2114;50.398;8.814;2022-11-15T04:00:06;1.77;;;1.67;;
4200;SDS011;2114;50.398;8.814;2022-11-15T04:05:07;1.10;;;1.10;;
4200;SDS011;2114;50.398;8.814;2022-11-15T04:10:09;1.10;;;1.00;;
4200;SDS011;2114;50.398;8.814;2022-11-15T04:15:11;0.80;;;0.80;;
4200;SDS011;2114;50.398;8.814;2022-11-15T04:20:24;1.20;;;1.10;;
4200;SDS011;2114;50.398;8.814;2022-11-15T04:25:46;0.80;;;0.80;;
4200;SDS011;2114;50.398;8.814;2022-11-15T04:30:57;1.00;;;1.00;;
4200;SDS011;2114;50.398;8.814;2022-11-15T04:35:58;2.97;;;1.20;;
4200;SDS011;2114;50.398;8.814;2022-11-15T04:41:17;1.30;;;1.27;;
4200;SDS011;2114;50.398;8.814;2022-11-15T04:46:18;1.13;;;1.07;;
4200;SDS011;2114;50.398;8.814;2022-11-15T04:51:18;0.73;;;0.73;;
4200;SDS011;2114;50.398;8.814;2022-11-15T04:56:19;1.20;;;1.10;;
4200;SDS011;2114;50.398;8.814;2022-11-15T05:01:19;1.37;;;1.30;;
4200;SDS011;2114;50.398;8.814;2022-11-15T05:06:20;1.00;;;0.97;;
4200;SDS011;2114;50.398;8.814;2022-11-15T05:11:21;0.90;;;0.90;;
4200;SDS011;2114;50.398;8.814;2022-11-15T05:16:21;1.43;;;1.33;;
4200;SDS011;2114;50.398;8.814;2022-11-15T05:21:22;0.93;;;0.90;;
4200;SDS011;2114;50.398;8.814;2022-11-15T05:26:23;1.00;;;0.90;;
4200;SDS011;2114;50.398;8.814;2022-11-15T05:31:24;0.90;;;0.90;;
4200;SDS011;2114;50.398;8.814;2022-11-15T05:41:31;1.63;;;1.17;;
4200;SDS011;2114;50.398;8.814;2022-11-15T05:46:33;1.40;;;1.30;;
4200;SDS011;2114;50.398;8.814;2022-11-15T05:51:35;0.70;;;0.70;;
4200;SDS011;2114;50.398;8.814;2022-11-15T05:56:35;2.57;;;1.50;;
4200;SDS011;2114;50.398;8.814;2022-11-15T06:01:36;2.80;;;1.17;;
4200;SDS011;2114;50.398;8.814;2022-11-15T06:06:38;1.67;;;1.57;;
4200;SDS011;2114;50.398;8.814;2022-11-15T06:11:38;0.80;;;0.80;;
4200;SDS011;2114;50.398;8.814;2022-11-15T06:16:39;1.40;;;1.30;;
4200;SDS011;2114;50.398;8.814;2022-11-15T06:21:39;2.93;;;1.90;;
4200;SDS011;2114;50.398;8.814;2022-11-15T06:26:40;1.80;;;1.67;;
4200;SDS011;2114;50.398;8.814;2022-11-15T06:31:41;1.00;;;0.93;;
4200;SDS011;2114;50.398;8.814;2022-11-15T06:36:41;1.10;;;1.10;;
4200;SDS011;2114;50.398;8.814;2022-11-15T06:41:42;1.13;;;1.10;;
4200;SDS011;2114;50.398;8.814;2022-11-15T06:46:42;1.03;;;1.00;;
4200;SDS011;2114;50.398;8.814;2022-11-15T06:51:43;0.90;;;0.90;;
4200;SDS011;2114;50.398;8.814;2022-11-15T06:56:43;0.90;;;0.90;;
4200;SDS011;2114;50.398;8.814;2022-11-15T07:01:44;1.30;;;1.20;;
4200;SDS011;2114;50.398;8.814;2022-11-15T07:06:47;2.63;;;1.47;;
4200;SDS011;2114;50.398;8.814;2022-11-15T07:11:48;1.50;;;1.40;;
4200;SDS011;2114;50.398;8.814;2022-11-15T07:16:49;1.70;;;0.83;;
4200;SDS011;2114;50.398;8.814;2022-11-15T07:21:49;2.50;;;0.77;;
4200;SDS011;2114;50.398;8.814;2022-11-15T07:26:50;1.33;;;1.23;;
4200;SDS011;2114;50.398;8.814;2022-11-15T07:31:50;1.00;;;1.00;;
4200;SDS011;2114;50.398;8.814;2022-11-15T07:36:51;1.20;;;1.20;;
4200;SDS011;2114;50.398;8.814;2022-11-15T07:41:51;2.03;;;1.83;;
4200;SDS011;2114;50.398;8.814;2022-11-15T07:47:12;1.23;;;1.17;;
4200;SDS011;2114;50.398;8.814;2022-11-15T07:52:13;1.53;;;1.43;;
4200;SDS011;2114;50.398;8.814;2022-11-15T07:57:14;1.20;;;1.10;;
4200;SDS011;2114;50.398;8.814;2022-11-15T08:02:14;1.00;;;1.00;;
4200;SDS011;2114;50.398;8.814;2022-11-15T08:07:17;1.40;;;1.30;;
4200;SDS011;2114;50.398;8.814;2022-11-15T08:12:18;2.00;;;1.30;;
4200;SDS011;2114;50.398;8.814;2022-11-15T08:17:18;0.80;;;0.80;;
4200;SDS011;2114;50.398;8.814;2022-11-15T08:22:19;2.10;;;1.67;;
4200;SDS011;2114;50.398;8.814;2022-11-15T08:27:19;1.50;;;1.40;;
4200;SDS011;2114;50.398;8.814;2022-11-15T08:32:20;0.93;;;0.93;;
4200;SDS011;2114;50.398;8.814;2022-11-15T08:37:21;1.30;;;1.20;;
4200;SDS011;2114;50.398;8.814;2022-11-15T08:42:21;1.07;;;0.97;;
4200;SDS011;2114;50.398;8.814;2022-11-15T08:47:22;2.67;;;2.17;;
4200;SDS011;2114;50.398;8.814;2022-11-15T08:52:23;1.63;;;1.20;;
4200;SDS011;2114;50.398;8.814;2022-11-15T08:57:24;1.13;;;1.13;;
4200;SDS011;2114;50.398;8.814;2022-11-15T09:02:24;1.60;;;1.47;;
4200;SDS011;2114;50.398;8.814;2022-11-15T09:07:25;2.20;;;1.47;;
4200;SDS011;2114;50.398;8.814;2022-11-15T09:12:26;3.20;;;1.40;;
4200;SDS011;2114;50.398;8.814;2022-11-15T09:17:26;2.13;;;1.57;;
4200;SDS011;2114;50.398;8.814;2022-11-15T09:22:27;1.20;;;1.10;;
4200;SDS011;2114;50.398;8.814;2022-11-15T09:27:29;3.10;;;1.90;;
4200;SDS011;2114;50.398;8.814;2022-11-15T09:32:29;1.23;;;0.90;;
4200;SDS011;2114;50.398;8.814;2022-11-15T09:37:31;1.10;;;1.10;;
4200;SDS011;2114;50.398;8.814;2022-11-15T09:59:01;1.43;;;1.13;;
4200;SDS011;2114;50.398;8.814;2022-11-15T10:04:13;1.00;;;1.00;;
4200;SDS011;2114;50.398;8.814;2022-11-15T10:09:19;1.87;;;1.73;;
4200;SDS011;2114;50.398;8.814;2022-11-15T10:14:29;1.43;;;1.33;;
4200;SDS011;2114;50.398;8.814;2022-11-15T10:19:37;2.03;;;1.90;;
4200;SDS011;2114;50.398;8.814;2022-11-15T10:30:14;1.77;;;1.63;;
4200;SDS011;2114;50.398;8.814;2022-11-15T10:35:20;1.60;;;1.50;;
4200;SDS011;2114;50.398;8.814;2022-11-15T10:40:24;1.40;;;1.30;;
4200;SDS011;2114;50.398;8.814;2022-11-15T10:45:28;2.27;;;1.77;;
4200;SDS011;2114;50.398;8.814;2022-11-15T10:50:31;1.90;;;1.80;;
4200;SDS011;2114;50.398;8.814;2022-11-15T10:55:32;1.00;;;1.00;;
4200;SDS011;2114;50.398;8.814;2022-11-15T11:00:37;1.00;;;1.00;;
4200;SDS011;2114;50.398;8.814;2022-11-15T11:05:41;2.23;;;1.60;;
4200;SDS011;2114;50.398;8.814;2022-11-15T11:10:54;2.00;;;1.50;;
4200;SDS011;2114;50.398;8.814;2022-11-15T11:32:39;5.60;;;1.80;;
4200;SDS011;2114;50.398;8.814;2022-11-15T11:37:51;2.00;;;1.30;;
4200;SDS011;2114;50.398;8.814;2022-11-15T11:43:00;7.13;;;1.57;;
4200;SDS011;2114;50.398;8.814;2022-11-15T11:53:30;2.97;;;1.20;;
4200;SDS011;2114;50.398;8.814;2022-11-15T11:58:40;1.37;;;1.30;;
4200;SDS011;2114;50.398;8.814;2022-11-15T12:04:09;1.70;;;1.07;;
4200;SDS011;2114;50.398;8.814;2022-11-15T12:19:47;1.50;;;1.43;;
4200;SDS011;2114;50.398;8.814;2022-11-15T12:29:52;1.50;;;1.40;;
4200;SDS011;2114;50.398;8.814;2022-11-15T12:34:56;1.50;;;1.40;;
4200;SDS011;2114;50.398;8.814;2022-11-15T12:40:16;1.70;;;1.10;;
4200;SDS011;2114;50.398;8.814;2022-11-15T12:45:25;0.93;;;0.83;;
4200;SDS011;2114;50.398;8.814;2022-11-15T13:01:58;1.67;;;1.23;;
4200;SDS011;2114;50.398;8.814;2022-11-15T13:07:02;1.53;;;1.10;;
4200;SDS011;2114;50.398;8.814;2022-11-15T13:17:36;1.47;;;1.37;;
4200;SDS011;2114;50.398;8.814;2022-11-15T13:33:21;1.97;;;1.80;;
4200;SDS011;2114;50.398;8.814;2022-11-15T13:43:31;1.40;;;1.30;;
4200;SDS011;2114;50.398;8.814;2022-11-15T13:48:35;1.70;;;1.20;;
4200;SDS011;2114;50.398;8.814;2022-11-15T13:53:36;1.20;;;1.10;;
4200;SDS011;2114;50.398;8.814;2022-11-15T13:58:42;1.17;;;1.07;;
4200;SDS011;2114;50.398;8.814;2022-11-15T14:03:58;0.97;;;0.90;;
4200;SDS011;2114;50.398;8.814;2022-11-15T14:19:50;2.60;;;1.43;;
4200;SDS011;2114;50.398;8.814;2022-11-15T14:24:31;2.07;;;1.50;;
4200;SDS011;2114;50.398;8.814;2022-11-15T14:29:32;3.47;;;1.67;;
4200;SDS011;2114;50.398;8.814;2022-11-15T14:34:33;1.40;;;1.10;;
4200;SDS011;2114;50.398;8.814;2022-11-15T14:39:33;0.90;;;0.90;;
4200;SDS011;2114;50.398;8.814;2022-11-15T14:44:34;1.27;;;1.17;;
4200;SDS011;2114;50.398;8.814;2022-11-15T14:49:34;0.70;;;0.70;;
4200;SDS011;2114;50.398;8.814;2022-11-15T14:54:35;1.13;;;1.13;;
4200;SDS011;2114;50.398;8.814;2022-11-15T14:59:35;1.53;;;1.43;;
4200;SDS011;2114;50.398;8.814;2022-11-15T15:04:36;0.87;;;0.87;;
4200;SDS011;2114;50.398;8.814;2022-11-15T15:09:36;1.37;;;1.27;;
4200;SDS011;2114;50.398;8.814;2022-11-15T15:14:37;1.10;;;1.10;;
4200;SDS011;2114;50.398;8.814;2022-11-15T15:19:38;1.10;;;1.10;;
4200;SDS011;2114;50.398;8.814;2022-11-15T15:24:38;1.73;;;1.63;;
4200;SDS011;2114;50.398;8.814;2022-11-15T15:29:39;1.60;;;1.50;;
4200;SDS011;2114;50.398;8.814;2022-11-15T15:34:40;2.97;;;1.90;;
4200;SDS011;2114;50.398;8.814;2022-11-15T15:39:41;0.90;;;0.90;;
4200;SDS011;2114;50.398;8.814;2022-11-15T15:44:41;0.90;;;0.90;;
4200;SDS011;2114;50.398;8.814;2022-11-15T15:49:42;1.27;;;1.27;;
4200;SDS011;2114;50.398;8.814;2022-11-15T15:54:42;1.37;;;1.27;;
4200;SDS011;2114;50.398;8.814;2022-11-15T15:59:43;0.90;;;0.90;;
4200;SDS011;2114;50.398;8.814;2022-11-15T16:04:43;1.37;;;1.27;;
4200;SDS011;2114;50.398;8.814;2022-11-15T16:09:44;1.77;;;1.43;;
4200;SDS011;2114;50.398;8.814;2022-11-15T16:15:00;1.37;;;1.30;;
4200;SDS011;2114;50.398;8.814;2022-11-15T16:20:01;1.37;;;1.30;;
4200;SDS011;2114;50.398;8.814;2022-11-15T16:25:02;1.23;;;1.07;;
4200;SDS011;2114;50.398;8.814;2022-11-15T16:30:03;7.63;;;6.10;;
4200;SDS011;2114;50.398;8.814;2022-11-15T16:35:04;15.20;;;6.00;;
4200;SDS011;2114;50.398;8.814;2022-11-15T16:40:07;4.20;;;3.00;;
4200;SDS011;2114;50.398;8.814;2022-11-15T16:45:17;8.70;;;4.50;;
4200;SDS011;2114;50.398;8.814;2022-11-15T16:50:19;3.63;;;3.13;;
4200;SDS011;2114;50.398;8.814;2022-11-15T16:55:24;2.70;;;2.50;;
4200;SDS011;2114;50.398;8.814;2022-11-15T17:00:26;1.37;;;1.27;;
4200;SDS011;2114;50.398;8.814;2022-11-15T17:05:27;5.80;;;1.60;;
4200;SDS011;2114;50.398;8.814;2022-11-15T17:10:28;1.47;;;1.00;;
4200;SDS011;2114;50.398;8.814;2022-11-15T17:15:29;1.80;;;1.43;;
4200;SDS011;2114;50.398;8.814;2022-11-15T17:20:29;0.93;;;0.93;;
4200;SDS011;2114;50.398;8.814;2022-11-15T17:25:30;1.07;;;1.07;;
4200;SDS011;2114;50.398;8.814;2022-11-15T17:30:30;0.83;;;0.80;;
4200;SDS011;2114;50.398;8.814;2022-11-15T17:35:30;1.50;;;1.40;;
4200;SDS011;2114;50.398;8.814;2022-11-15T17:40:31;0.90;;;0.90;;
4200;SDS011;2114;50.398;8.814;2022-11-15T17:45:32;1.43;;;1.33;;
4200;SDS011;2114;50.398;8.814;2022-11-15T17:50:32;1.67;;;1.57;;
4200;SDS011;2114;50.398;8.814;2022-11-15T17:55:33;2.47;;;2.10;;
4200;SDS011;2114;50.398;8.814;2022-11-15T18:00:33;2.60;;;1.70;;
4200;SDS011;2114;50.398;8.814;2022-11-15T18:05:36;1.43;;;1.17;;
4200;SDS011;2114;50.398;8.814;2022-11-15T18:10:37;1.37;;;0.97;;
4200;SDS011;2114;50.398;8.814;2022-11-15T18:15:37;2.40;;;1.40;;
4200;SDS011;2114;50.398;8.814;2022-11-15T18:20:38;1.70;;;1.60;;
4200;SDS011;2114;50.398;8.814;2022-11-15T18:25:38;2.13;;;2.03;;
4200;SDS011;2114;50.398;8.814;2022-11-15T18:30:39;2.40;;;1.80;;
4200;SDS011;2114;50.398;8.814;2022-11-15T18:35:40;3.03;;;2.00;;
4200;SDS011;2114;50.398;8.814;2022-11-15T18:40:41;2.67;;;2.47;;
4200;SDS011;2114;50.398;8.814;2022-11-15T18:45:41;1.90;;;1.80;;
4200;SDS011;2114;50.398;8.814;2022-11-15T18:50:42;3.63;;;2.80;;
4200;SDS011;2114;50.398;8.814;2022-11-15T18:55:42;5.63;;;3.30;;
4200;SDS011;2114;50.398;8.814;2022-11-15T19:00:43;9.77;;;4.67;;
4200;SDS011;2114;50.398;8.814;2022-11-15T19:05:43;4.40;;;3.40;;
4200;SDS011;2114;50.398;8.814;2022-11-15T19:10:44;3.80;;;2.70;;
4200;SDS011;2114;50.398;8.814;2022-11-15T19:15:44;1.57;;;1.47;;
4200;SDS011;2114;50.398;8.814;2022-11-15T19:20:45;1.67;;;1.57;;
4200;SDS011;2114;50.398;8.814;2022-11-15T19:25:52;1.97;;;1.80;;
4200;SDS011;2114;50.398;8.814;2022-11-15T19:31:11;2.43;;;1.67;;
4200;SDS011;2114;50.398;8.814;2022-11-15T19:36:13;2.07;;;1.93;;
4200;SDS011;2114;50.398;8.814;2022-11-15T19:41:17;1.17;;;1.17;;
4200;SDS011;2114;50.398;8.814;2022-11-15T19:46:19;1.87;;;1.70;;
4200;SDS011;2114;50.398;8.814;2022-11-15T19:51:23;2.37;;;2.17;;
4200;SDS011;2114;50.398;8.814;2022-11-15T19:56:25;1.20;;;1.10;;
4200;SDS011;2114;50.398;8.814;2022-11-15T20:01:26;1.70;;;1.20;;
4200;SDS011;2114;50.398;8.814;2022-11-15T20:06:37;3.43;;;2.43;;
4200;SDS011;2114;50.398;8.814;2022-11-15T20:11:39;3.40;;;2.10;;
4200;SDS011;2114;50.398;8.814;2022-11-15T20:16:40;1.90;;;1.73;;
4200;SDS011;2114;50.398;8.814;2022-11-15T20:21:41;2.47;;;1.30;;
4200;SDS011;2114;50.398;8.814;2022-11-15T20:26:43;2.67;;;1.73;;
4200;SDS011;2114;50.398;8.814;2022-11-15T20:31:43;2.13;;;1.53;;
4200;SDS011;2114;50.398;8.814;2022-11-15T20:36:44;1.80;;;1.70;;
4200;SDS011;2114;50.398;8.814;2022-11-15T20:41:44;3.67;;;2.67;;
4200;SDS011;2114;50.398;8.814;2022-11-15T20:46:45;3.73;;;2.53;;
4200;SDS011;2114;50.398;8.814;2022-11-15T20:51:45;4.03;;;2.50;;
4200;SDS011;2114;50.398;8.814;2022-11-15T20:56:46;1.80;;;1.60;;
4200;SDS011;2114;50.398;8.814;2022-11-15T21:01:46;5.70;;;2.67;;
4200;SDS011;2114;50.398;8.814;2022-11-15T21:06:47;1.50;;;1.40;;
4200;SDS011;2114;50.398;8.814;2022-11-15T21:11:47;1.00;;;1.00;;
4200;SDS011;2114;50.398;8.814;2022-11-15T21:17:07;1.63;;;1.43;;
4200;SDS011;2114;50.398;8.814;2022-11-15T21:22:08;1.50;;;1.40;;
4200;SDS011;2114;50.398;8.814;2022-11-15T21:27:11;1.57;;;1.43;;
4200;SDS011;2114;50.398;8.814;2022-11-15T21:32:12;1.27;;;1.17;;
4200;SDS011;2114;50.398;8.814;2022-11-15T21:37:12;1.60;;;1.50;;
4200;SDS011;2114;50.398;8.814;2022-11-15T21:42:13;1.50;;;1.40;;
4200;SDS011;2114;50.398;8.814;2022-11-15T21:47:14;0.93;;;0.93;;
4200;SDS011;2114;50.398;8.814;2022-11-15T21:52:14;1.20;;;1.03;;
4200;SDS011;2114;50.398;8.814;2022-11-15T21:57:15;0.90;;;0.90;;
4200;SDS011;2114;50.398;8.814;2022-11-15T22:02:17;1.60;;;1.50;;
4200;SDS011;2114;50.398;8.814;2022-11-15T22:07:18;0.80;;;0.80;;
4200;SDS011;2114;50.398;8.814;2022-11-15T22:12:19;1.43;;;1.13;;
4200;SDS011;2114;50.398;8.814;2022-11-15T22:17:19;1.13;;;1.10;;
4200;SDS011;2114;50.398;8.814;2022-11-15T22:22:20;2.13;;;1.30;;
4200;SDS011;2114;50.398;8.814;2022-11-15T22:27:20;2.50;;;1.87;;
4200;SDS011;2114;50.398;8.814;2022-11-15T22:32:21;1.10;;;1.10;;
4200;SDS011;2114;50.398;8.814;2022-11-15T22:37:21;1.37;;;1.27;;
4200;SDS011;2114;50.398;8.814;2022-11-15T22:42:22;1.13;;;1.03;;
4200;SDS011;2114;50.398;8.814;2022-11-15T22:47:22;1.17;;;1.17;;
4200;SDS011;2114;50.398;8.814;2022-11-15T22:52:24;3.03;;;1.00;;
4200;SDS011;2114;50.398;8.814;2022-11-15T22:57:24;1.73;;;1.63;;
4200;SDS011;2114;50.398;8.814;2022-11-15T23:02:25;1.87;;;1.77;;
4200;SDS011;2114;50.398;8.814;2022-11-15T23:07:26;1.40;;;0.90;;
4200;SDS011;2114;50.398;8.814;2022-11-15T23:12:26;0.90;;;0.90;;
4200;SDS011;2114;50.398;8.814;2022-11-15T23:17:45;0.90;;;0.90;;
4200;SDS011;2114;50.398;8.814;2022-11-15T23:22:46;1.20;;;1.10;;
4200;SDS011;2114;50.398;8.814;2022-11-15T23:27:47;1.20;;;1.10;;
4200;SDS011;2114;50.398;8.814;2022-11-15T23:32:47;1.33;;;1.23;;
4200;SDS011;2114;50.398;8.814;2022-11-15T23:38:06;1.17;;;1.13;;
4200;SDS011;2114;50.398;8.814;2022-11-15T23:43:07;0.90;;;0.90;;
4200;SDS011;2114;50.398;8.814;2022-11-15T23:48:08;0.90;;;0.90;;
4200;SDS011;2114;50.398;8.814;2022-11-15T23:53:08;0.90;;;0.90;;
4200;SDS011;2114;50.398;8.814;2022-11-15T23:58:09;1.40;;;1.03;;
